createdAt,value
2023-03-03T00:01:38.067Z,80.70
2023-03-03T00:04:11.717Z,77.00
2023-03-03T00:06:46.217Z,78.00
2023-03-03T00:09:20.000Z,75.30
2023-03-03T00:11:59.777Z,74.40
2023-03-03T00:14:34.806Z,77.90
2023-03-03T00:17:25.805Z,77.80
2023-03-03T00:19:59.810Z,84.40
2023-03-03T00:22:38.770Z,83.10
2023-03-03T00:25:30.498Z,79.60
2023-03-03T00:28:18.068Z,84.00
2023-03-03T00:30:52.269Z,79.60
2023-03-03T00:33:33.156Z,75.50
2023-03-03T00:36:32.092Z,75.10
2023-03-03T00:39:28.207Z,75.10
2023-03-03T00:42:12.891Z,77.80
2023-03-03T00:44:47.923Z,77.40
2023-03-03T00:47:31.950Z,81.50
2023-03-03T00:53:17.624Z,78.80
2023-03-03T00:55:53.534Z,75.40
2023-03-03T00:58:28.116Z,75.00
2023-03-03T01:01:02.696Z,69.60
2023-03-03T01:03:44.983Z,67.80
2023-03-03T01:06:18.559Z,70.80
2023-03-03T01:08:51.811Z,70.80
2023-03-03T01:11:28.966Z,70.90
2023-03-03T01:14:02.542Z,68.10
2023-03-03T01:16:36.531Z,64.70
2023-03-03T01:19:10.316Z,73.00
2023-03-03T01:21:44.033Z,71.40
2023-03-03T01:24:18.024Z,67.00
2023-03-03T01:26:51.551Z,65.20
2023-03-03T01:29:25.429Z,70.80
2023-03-03T01:31:59.075Z,65.80
2023-03-03T01:34:32.959Z,67.30
2023-03-03T01:37:06.829Z,64.40
2023-03-03T01:39:40.425Z,61.50
2023-03-03T01:42:14.222Z,64.00
2023-03-03T01:44:48.557Z,63.40
2023-03-03T01:47:26.666Z,58.80
2023-03-03T01:50:04.215Z,57.80
2023-03-03T01:52:40.780Z,64.80
2023-03-03T01:55:17.991Z,61.60
2023-03-03T01:57:58.914Z,66.00
2023-03-03T02:00:33.439Z,62.80
2023-03-03T02:03:07.744Z,68.30
2023-03-03T02:05:43.717Z,60.00
2023-03-03T02:08:23.849Z,58.70
2023-03-03T02:10:58.891Z,64.20
2023-03-03T02:13:33.144Z,60.50
2023-03-03T02:16:07.729Z,65.30
2023-03-03T02:18:41.622Z,57.30
2023-03-03T02:21:17.305Z,57.60
2023-03-03T02:23:56.514Z,62.30
2023-03-03T02:26:31.636Z,56.10
2023-03-03T02:29:08.303Z,59.20
2023-03-03T02:31:43.473Z,61.90
2023-03-03T02:34:17.149Z,59.70
2023-03-03T02:36:50.875Z,61.30
2023-03-03T02:39:30.434Z,58.10
2023-03-03T02:42:08.915Z,56.20
2023-03-03T02:44:56.037Z,57.50
2023-03-03T02:47:30.750Z,62.10
2023-03-03T02:50:04.654Z,68.00
2023-03-03T02:52:38.384Z,59.90
2023-03-03T02:55:13.855Z,67.00
2023-03-03T02:57:47.494Z,65.40
2023-03-03T03:00:21.902Z,65.20
2023-03-03T03:02:55.536Z,68.60
2023-03-03T03:05:30.277Z,63.30
2023-03-03T03:08:03.969Z,66.30
2023-03-03T03:10:38.357Z,62.70
2023-03-03T03:13:12.340Z,61.80
2023-03-03T03:15:48.905Z,66.40
2023-03-03T03:18:23.514Z,62.30
2023-03-03T03:20:57.378Z,64.30
2023-03-03T03:23:31.601Z,65.70
2023-03-03T03:26:06.288Z,71.00
2023-03-03T03:28:40.565Z,60.00
2023-03-03T03:31:14.602Z,67.70
2023-03-03T03:33:49.324Z,61.40
2023-03-03T03:36:23.513Z,62.80
2023-03-03T03:38:58.258Z,64.90
2023-03-03T03:41:32.559Z,61.10
2023-03-03T03:44:06.361Z,63.10
2023-03-03T03:46:40.237Z,60.20
2023-03-03T03:49:14.408Z,69.40
2023-03-03T03:51:48.049Z,61.80
2023-03-03T03:54:23.130Z,60.80
2023-03-03T03:56:57.604Z,65.80
2023-03-03T03:59:31.118Z,64.90
2023-03-03T04:02:04.754Z,63.40
2023-03-03T04:04:38.465Z,66.50
2023-03-03T04:07:13.264Z,62.00
2023-03-03T04:09:46.880Z,62.10
2023-03-03T04:12:20.453Z,64.90
2023-03-03T04:14:54.176Z,57.90
2023-03-03T04:17:27.818Z,60.20
2023-03-03T04:20:02.660Z,65.20
2023-03-03T04:22:37.428Z,56.80
2023-03-03T04:25:14.911Z,59.60
2023-03-03T04:27:49.290Z,65.70
2023-03-03T04:30:24.735Z,64.10
2023-03-03T04:33:01.163Z,66.30
2023-03-03T04:35:35.079Z,60.70
2023-03-03T04:38:09.288Z,65.00
2023-03-03T04:40:43.816Z,64.80
2023-03-03T04:43:18.483Z,67.10
2023-03-03T04:45:52.527Z,65.50
2023-03-03T04:48:26.427Z,73.70
2023-03-03T04:51:00.672Z,66.60
2023-03-03T04:53:34.654Z,70.20
2023-03-03T04:56:08.811Z,73.60
2023-03-03T04:58:42.742Z,65.60
2023-03-03T05:01:16.731Z,65.00
2023-03-03T05:03:50.451Z,69.10
2023-03-03T05:06:24.846Z,70.70
2023-03-03T05:08:58.211Z,70.30
2023-03-03T05:11:32.855Z,68.30
2023-03-03T05:14:08.568Z,72.60
2023-03-03T05:16:42.486Z,73.80
2023-03-03T05:19:16.799Z,71.50
2023-03-03T05:21:50.212Z,70.40
2023-03-03T05:24:24.330Z,71.30
2023-03-03T05:26:57.795Z,76.80
2023-03-03T05:29:32.002Z,81.70
2023-03-03T05:32:05.749Z,74.80
2023-03-03T05:34:39.644Z,81.40
2023-03-03T05:37:13.700Z,87.70
2023-03-03T05:39:47.516Z,87.30
2023-03-03T05:42:20.886Z,79.00
2023-03-03T05:44:54.935Z,83.80
2023-03-03T05:47:28.954Z,83.80
2023-03-03T05:50:03.150Z,75.90
2023-03-03T05:52:36.861Z,77.60
2023-03-03T05:55:12.254Z,89.30
2023-03-03T05:57:45.718Z,80.10
2023-03-03T06:00:21.340Z,88.20
2023-03-03T06:02:55.316Z,78.80
2023-03-03T06:05:29.345Z,80.10
2023-03-03T06:08:02.971Z,79.00
2023-03-03T06:10:36.789Z,82.10
2023-03-03T06:13:10.951Z,83.80
2023-03-03T06:15:45.605Z,78.60
2023-03-03T06:18:19.987Z,71.10
2023-03-03T06:20:56.841Z,69.90
2023-03-03T06:23:30.609Z,72.10
2023-03-03T06:26:04.322Z,79.40
2023-03-03T06:28:37.710Z,75.40
2023-03-03T06:31:11.602Z,73.00
2023-03-03T06:33:45.278Z,72.60
2023-03-03T06:36:18.709Z,65.20
2023-03-03T06:38:52.435Z,65.20
2023-03-03T06:41:25.670Z,64.60
2023-03-03T06:44:00.665Z,60.30
2023-03-03T06:46:34.409Z,67.50
2023-03-03T06:49:07.839Z,59.90
2023-03-03T06:51:44.228Z,54.00
2023-03-03T06:54:20.593Z,60.00
2023-03-03T06:56:59.784Z,58.30
2023-03-03T06:59:33.887Z,60.90
2023-03-03T07:02:18.820Z,52.50
2023-03-03T07:04:55.099Z,55.50
2023-03-03T07:07:29.654Z,48.30
2023-03-03T07:10:09.658Z,54.60
2023-03-03T07:12:43.371Z,51.20
2023-03-03T07:15:22.247Z,54.50
2023-03-03T07:17:59.977Z,53.50
2023-03-03T07:20:37.646Z,51.00
2023-03-03T07:23:22.934Z,52.80
2023-03-03T07:25:56.891Z,50.90
2023-03-03T07:28:34.884Z,52.50
2023-03-03T07:31:27.742Z,56.80
2023-03-03T07:34:03.382Z,53.30
2023-03-03T07:36:39.288Z,56.30
2023-03-03T07:39:30.046Z,60.10
2023-03-03T07:42:22.528Z,48.80
2023-03-03T07:45:02.378Z,48.60
2023-03-03T07:47:39.442Z,51.30
2023-03-03T07:50:24.914Z,54.50
2023-03-03T07:53:00.443Z,51.10
2023-03-03T07:55:38.661Z,57.70
2023-03-03T07:58:25.415Z,57.30
2023-03-03T08:01:28.305Z,51.80
2023-03-03T08:04:01.950Z,46.50
2023-03-03T08:06:45.345Z,51.20
2023-03-03T08:09:44.411Z,50.50
2023-03-03T08:12:33.402Z,49.70
2023-03-03T08:15:23.133Z,51.00
2023-03-03T08:17:57.871Z,52.00
2023-03-03T08:20:51.712Z,47.90
2023-03-03T08:23:25.529Z,42.80
2023-03-03T08:25:59.471Z,55.10
2023-03-03T08:28:33.275Z,48.60
2023-03-03T08:31:18.505Z,51.30
2023-03-03T08:33:59.142Z,52.20
2023-03-03T08:36:34.678Z,51.00
2023-03-03T08:39:09.787Z,49.00
2023-03-03T08:41:44.812Z,48.50
2023-03-03T08:44:19.924Z,51.20
2023-03-03T08:46:53.762Z,44.30
2023-03-03T08:49:27.431Z,41.90
2023-03-03T08:52:01.120Z,45.00
2023-03-03T08:54:35.398Z,47.50
2023-03-03T08:57:09.129Z,43.50
2023-03-03T08:59:43.147Z,45.50
2023-03-03T09:02:18.182Z,45.50
2023-03-03T09:04:52.254Z,47.80
2023-03-03T09:07:25.780Z,47.80
2023-03-03T09:09:59.407Z,50.90
2023-03-03T09:12:36.839Z,56.30
2023-03-03T09:15:20.817Z,53.50
2023-03-03T09:17:54.834Z,49.60
2023-03-03T09:20:40.506Z,54.30
2023-03-03T09:23:36.066Z,51.40
2023-03-03T09:26:31.387Z,55.90
2023-03-03T09:29:20.747Z,52.00
2023-03-03T09:31:56.052Z,48.40
2023-03-03T09:34:42.698Z,48.90
2023-03-03T09:37:24.983Z,55.90
2023-03-03T09:39:59.215Z,48.10
2023-03-03T09:42:53.377Z,48.20
2023-03-03T09:45:55.125Z,50.70
2023-03-03T09:48:47.512Z,40.80
2023-03-03T09:51:37.099Z,48.20
2023-03-03T09:54:24.543Z,46.10
2023-03-03T09:57:07.580Z,44.60
2023-03-03T10:00:03.652Z,43.50
2023-03-03T10:03:00.968Z,49.10
2023-03-03T10:05:45.539Z,49.60
2023-03-03T10:08:39.850Z,51.40
2023-03-03T10:11:24.857Z,44.40
2023-03-03T10:14:20.598Z,45.50
2023-03-03T10:17:15.262Z,47.40
2023-03-03T10:20:00.869Z,49.20
2023-03-03T10:22:45.446Z,42.30
2023-03-03T10:25:30.202Z,41.90
2023-03-03T10:28:32.939Z,43.20
2023-03-03T10:31:20.736Z,50.40
2023-03-03T10:34:00.753Z,52.50
2023-03-03T10:36:43.452Z,46.10
2023-03-03T10:39:35.254Z,49.50
2023-03-03T10:42:21.321Z,48.60
2023-03-03T10:45:20.194Z,51.50
2023-03-03T10:48:24.395Z,46.90
2023-03-03T10:51:07.604Z,52.80
2023-03-03T10:53:54.528Z,49.60
2023-03-03T10:56:52.177Z,45.60
2023-03-03T10:59:43.112Z,49.30
2023-03-03T11:02:24.939Z,47.80
2023-03-03T11:05:34.655Z,48.60
2023-03-03T11:08:14.612Z,47.00
2023-03-03T11:10:58.719Z,37.90
2023-03-03T11:13:42.812Z,38.90
2023-03-03T11:16:37.712Z,39.40
2023-03-03T11:19:30.509Z,31.50
2023-03-03T11:22:19.539Z,33.50
2023-03-03T11:25:03.968Z,35.60
2023-03-03T11:28:09.325Z,35.00
2023-03-03T11:31:06.720Z,34.90
2023-03-03T11:33:52.490Z,37.50
2023-03-03T11:36:35.076Z,32.00
2023-03-03T11:39:13.561Z,31.80
2023-03-03T11:42:01.368Z,32.40
2023-03-03T11:44:39.920Z,33.90
2023-03-03T11:47:21.101Z,33.00
2023-03-03T11:49:59.395Z,33.00
2023-03-03T11:52:46.278Z,33.00
2023-03-03T11:55:26.925Z,33.70
2023-03-03T11:58:08.691Z,33.80
2023-03-03T12:00:50.067Z,33.10
2023-03-03T12:03:32.304Z,31.20
2023-03-03T12:06:19.885Z,33.60
2023-03-03T12:09:28.963Z,30.40
2023-03-03T12:12:08.877Z,32.90
2023-03-03T12:15:02.483Z,28.10
2023-03-03T12:17:55.919Z,31.20
2023-03-03T12:20:39.890Z,31.70
2023-03-03T12:23:26.666Z,33.40
2023-03-03T12:26:06.795Z,33.00
2023-03-03T12:28:44.456Z,36.10
2023-03-03T12:31:31.283Z,34.70
2023-03-03T12:34:14.087Z,33.10
2023-03-03T12:37:17.593Z,33.50
2023-03-03T12:40:05.152Z,33.60
2023-03-03T12:42:52.944Z,30.80
2023-03-03T12:45:39.635Z,33.00
2023-03-03T12:48:19.258Z,28.50
2023-03-03T12:51:01.829Z,33.80
2023-03-03T12:53:48.148Z,33.50
2023-03-03T12:56:29.350Z,35.00
2023-03-03T12:59:06.939Z,33.20
2023-03-03T13:01:55.740Z,40.90
2023-03-03T13:04:40.200Z,34.40
2023-03-03T13:07:21.552Z,36.40
2023-03-03T13:10:11.520Z,31.00
2023-03-03T13:12:52.692Z,34.50
2023-03-03T13:15:33.281Z,38.90
2023-03-03T13:18:27.829Z,32.80
2023-03-03T13:21:06.329Z,31.50
2023-03-03T13:26:26.826Z,33.40
2023-03-03T13:29:11.986Z,33.20
2023-03-03T13:31:52.359Z,34.10
2023-03-03T13:34:39.240Z,32.70
2023-03-03T13:37:22.863Z,33.20
2023-03-03T13:40:03.913Z,36.70
2023-03-03T13:42:43.713Z,28.60
2023-03-03T13:45:25.410Z,29.40
2023-03-03T13:48:09.142Z,28.20
2023-03-03T13:50:49.677Z,28.30
2023-03-03T13:53:39.930Z,29.80
2023-03-03T13:56:26.727Z,30.40
2023-03-03T13:59:10.320Z,32.60
2023-03-03T14:01:56.723Z,31.90
2023-03-03T14:04:53.270Z,34.00
2023-03-03T14:07:36.310Z,31.40
2023-03-03T14:10:17.246Z,32.00
2023-03-03T14:12:59.611Z,29.30
2023-03-03T14:15:37.247Z,33.40
2023-03-03T14:18:23.911Z,36.20
2023-03-03T14:21:00.962Z,28.10
2023-03-03T14:23:46.641Z,29.30
2023-03-03T14:26:20.221Z,30.20
2023-03-03T14:29:05.567Z,30.50
2023-03-03T14:31:44.717Z,33.40
2023-03-03T14:34:37.418Z,33.60
2023-03-03T14:37:25.583Z,39.10
2023-03-03T14:40:18.027Z,37.00
2023-03-03T14:42:56.555Z,33.50
2023-03-03T14:48:20.064Z,30.30
2023-03-03T14:51:05.046Z,34.00
2023-03-03T14:53:41.417Z,34.70
2023-03-03T14:56:25.412Z,34.10
2023-03-03T14:59:19.638Z,28.10
2023-03-03T15:02:05.034Z,32.60
2023-03-03T15:04:39.873Z,32.30
2023-03-03T15:07:30.696Z,30.10
2023-03-03T15:10:05.252Z,30.40
2023-03-03T15:12:42.629Z,32.00
2023-03-03T15:15:21.861Z,27.40
2023-03-03T15:18:03.798Z,28.20
2023-03-03T15:20:44.132Z,27.20
2023-03-03T15:23:37.661Z,28.60
2023-03-03T15:26:19.902Z,28.90
2023-03-03T15:29:06.728Z,27.60
2023-03-03T15:31:52.536Z,28.00
2023-03-03T15:34:35.716Z,29.50
2023-03-03T15:37:20.336Z,27.80
2023-03-03T15:40:04.695Z,32.70
2023-03-03T15:42:44.689Z,30.70
2023-03-03T15:45:29.018Z,31.90
2023-03-03T15:48:29.259Z,30.20
2023-03-03T15:51:16.501Z,26.90
2023-03-03T15:54:12.387Z,29.30
2023-03-03T15:56:53.509Z,30.20
2023-03-03T15:59:45.481Z,30.00
2023-03-03T16:02:25.489Z,33.60
2023-03-03T16:05:05.200Z,33.20
2023-03-03T16:07:49.391Z,29.90
2023-03-03T16:10:31.641Z,33.00
2023-03-03T16:13:23.245Z,31.90
2023-03-03T16:16:04.836Z,35.60
2023-03-03T16:18:56.286Z,36.60
2023-03-03T16:22:03.716Z,30.50
2023-03-03T16:24:50.386Z,31.00
2023-03-03T16:27:32.692Z,33.70
2023-03-03T16:30:19.493Z,33.00
2023-03-03T16:32:59.481Z,35.20
2023-03-03T16:35:39.689Z,33.60
2023-03-03T16:38:19.186Z,38.00
2023-03-03T16:40:58.268Z,39.30
2023-03-03T16:43:42.261Z,35.10
2023-03-03T16:46:31.877Z,33.40
2023-03-03T16:49:21.330Z,37.40
2023-03-03T16:52:02.771Z,30.50
2023-03-03T16:54:51.321Z,33.90
2023-03-03T16:57:35.641Z,30.10
2023-03-03T17:00:17.104Z,31.90
2023-03-03T17:03:22.558Z,30.70
2023-03-03T17:06:04.596Z,27.00
2023-03-03T17:09:02.558Z,29.00
2023-03-03T17:11:51.049Z,28.50
2023-03-03T17:14:38.820Z,28.30
2023-03-03T17:17:24.077Z,26.20
2023-03-03T17:20:19.188Z,26.40
2023-03-03T17:23:10.207Z,28.10
2023-03-03T17:25:56.022Z,25.40
2023-03-03T17:28:44.361Z,29.80
2023-03-03T17:31:32.471Z,27.50
2023-03-03T17:34:30.153Z,28.30
2023-03-03T17:37:18.396Z,25.20
2023-03-03T17:40:23.705Z,27.50
2023-03-03T17:43:05.738Z,30.30
2023-03-03T17:45:44.520Z,32.30
2023-03-03T17:48:46.262Z,32.00
2023-03-03T17:51:41.089Z,32.50
2023-03-03T17:54:37.952Z,33.70
2023-03-03T17:57:28.626Z,31.80
2023-03-03T18:00:19.269Z,33.70
2023-03-03T18:03:22.937Z,34.80
2023-03-03T18:06:17.071Z,34.00
2023-03-03T18:09:27.022Z,32.80
2023-03-03T18:12:12.541Z,34.30
2023-03-03T18:15:02.667Z,34.30
2023-03-03T18:17:49.786Z,34.30
2023-03-03T18:20:57.170Z,35.60
2023-03-03T18:23:45.832Z,36.50
2023-03-03T18:26:40.024Z,34.40
2023-03-03T18:29:24.314Z,32.40
2023-03-03T18:32:22.564Z,36.40
2023-03-03T18:35:29.954Z,33.80
2023-03-03T18:38:35.869Z,38.50
2023-03-03T18:41:24.469Z,37.40
2023-03-03T18:44:05.352Z,38.80
2023-03-03T18:47:06.001Z,36.10
2023-03-03T18:50:01.373Z,40.60
2023-03-03T18:52:42.190Z,35.00
2023-03-03T18:55:32.432Z,37.30
2023-03-03T18:58:42.507Z,41.10
2023-03-03T19:01:46.119Z,34.30
2023-03-03T19:04:34.195Z,37.60
2023-03-03T19:07:30.840Z,34.50
2023-03-03T19:10:32.296Z,35.20
2023-03-03T19:13:35.901Z,38.30
2023-03-03T19:16:31.389Z,33.80
2023-03-03T19:19:12.926Z,36.10
2023-03-03T19:21:53.450Z,35.60
2023-03-03T19:24:40.309Z,36.30
2023-03-03T19:27:35.560Z,40.40
2023-03-03T19:30:31.630Z,36.80
2023-03-03T19:33:48.315Z,37.80
2023-03-03T19:39:40.151Z,34.10
2023-03-03T19:42:27.897Z,40.60
2023-03-03T19:45:16.817Z,38.80
2023-03-03T19:50:46.552Z,36.50
2023-03-03T19:53:34.296Z,38.70
2023-03-03T19:56:25.189Z,34.70
2023-03-03T19:59:17.955Z,38.90
2023-03-03T20:02:18.511Z,37.00
2023-03-03T20:05:08.694Z,36.30
2023-03-03T20:07:53.068Z,32.80
2023-03-03T20:10:45.475Z,35.60
2023-03-03T20:13:48.183Z,33.50
2023-03-03T20:16:38.756Z,35.50
2023-03-03T20:19:32.584Z,36.70
2023-03-03T20:22:15.789Z,35.80
2023-03-03T20:25:18.618Z,36.70
2023-03-03T20:28:09.286Z,39.20
2023-03-03T20:31:08.789Z,37.50
2023-03-03T20:33:58.460Z,43.50
2023-03-03T20:36:44.128Z,42.60
2023-03-03T20:39:29.357Z,40.80
2023-03-03T20:42:12.146Z,42.80
2023-03-03T20:45:03.343Z,47.00
2023-03-03T20:47:55.228Z,47.30
2023-03-03T20:50:39.633Z,49.40
2023-03-03T20:53:27.711Z,46.50
2023-03-03T20:56:13.262Z,40.30
2023-03-03T20:59:12.668Z,41.60
2023-03-03T21:01:56.360Z,43.70
2023-03-03T21:04:38.694Z,40.80
2023-03-03T21:07:28.495Z,42.80
2023-03-03T21:10:17.842Z,39.90
2023-03-03T21:12:55.320Z,40.20
2023-03-03T21:15:37.071Z,36.20
2023-03-03T21:18:25.899Z,36.60
2023-03-03T21:21:02.924Z,39.30
2023-03-03T21:23:39.102Z,39.60
2023-03-03T21:26:15.367Z,40.10
2023-03-03T21:29:08.975Z,37.70
2023-03-03T21:31:49.857Z,39.70
2023-03-03T21:34:31.562Z,42.70
2023-03-03T21:37:07.748Z,43.40
2023-03-03T21:39:44.255Z,38.10
2023-03-03T21:42:20.429Z,43.70
2023-03-03T21:44:54.725Z,42.70
2023-03-03T21:47:31.637Z,44.90
2023-03-03T21:50:06.032Z,47.90
2023-03-03T21:52:39.712Z,49.60
2023-03-03T21:55:14.711Z,42.20
2023-03-03T21:57:48.812Z,41.80
2023-03-03T22:00:24.169Z,44.40
2023-03-03T22:02:58.149Z,43.10
2023-03-03T22:05:31.718Z,44.00
2023-03-03T22:08:06.118Z,50.50
2023-03-03T22:10:39.812Z,43.80
2023-03-03T22:13:15.170Z,45.10
2023-03-03T22:15:49.854Z,44.10
2023-03-03T22:18:23.627Z,43.30
2023-03-03T22:20:57.259Z,41.60
2023-03-03T22:23:31.155Z,43.40
2023-03-03T22:26:04.897Z,41.50
2023-03-03T22:28:38.595Z,44.60
2023-03-03T22:31:12.166Z,46.00
2023-03-03T22:33:45.808Z,40.20
2023-03-03T22:36:20.147Z,36.50
2023-03-03T22:38:53.500Z,38.90
2023-03-03T22:41:27.191Z,39.70
2023-03-03T22:44:00.781Z,38.20
2023-03-03T22:46:34.565Z,37.30
2023-03-03T22:49:08.357Z,37.90
2023-03-03T22:51:41.842Z,33.60
2023-03-03T22:54:15.462Z,34.80
2023-03-03T22:56:49.243Z,35.10
2023-03-03T22:59:22.893Z,33.60
2023-03-03T23:01:56.598Z,31.70
2023-03-03T23:04:33.508Z,32.80
2023-03-03T23:07:07.372Z,33.70
2023-03-03T23:09:41.144Z,34.30
2023-03-03T23:12:14.908Z,32.20
2023-03-03T23:14:49.089Z,33.30
2023-03-03T23:17:22.990Z,31.10
2023-03-03T23:19:56.841Z,38.80
2023-03-03T23:22:30.881Z,32.90
2023-03-03T23:25:04.397Z,34.60
2023-03-03T23:27:37.977Z,31.20
2023-03-03T23:30:15.064Z,30.00
2023-03-03T23:32:49.470Z,30.20
2023-03-03T23:35:23.487Z,28.60
2023-03-03T23:37:57.068Z,26.20
2023-03-03T23:40:30.304Z,28.40
2023-03-03T23:43:04.164Z,25.70
2023-03-03T23:45:37.529Z,29.20
2023-03-03T23:48:11.708Z,28.80
2023-03-03T23:50:45.199Z,29.30
2023-03-03T23:53:19.590Z,25.20
2023-03-03T23:55:52.845Z,25.70
2023-03-03T23:58:26.746Z,26.40
